MDT,Max TemperatureF,Mean TemperatureF,Min TemperatureF,Max Dew PointF,MeanDew PointF,Min DewpointF,Max Humidity, Mean Humidity, Min Humidity, Max Sea Level PressureIn, Mean Sea Level PressureIn, Min Sea Level PressureIn, Max VisibilityMiles, Mean VisibilityMiles, Min VisibilityMiles, Max Wind SpeedMPH, Mean Wind SpeedMPH, Max Gust SpeedMPH,PrecipitationIn, CloudCover, Events, WindDirDegrees
2012-9-1,75,59,46,55,48,44,96,72,38,30.04,29.99,29.94,10,10,10,17,6,24,0.01,2,Rain,222
2012-9-2,73,59,45,51,46,42,93,68,37,30.09,30.03,29.98,10,10,10,14,7,26,0.01,1,,208
2012-9-3,80,61,43,46,39,29,97,53,17,30.10,30.04,30.00,10,10,10,22,6,30,0.00,1,,237
2012-9-4,78,60,42,42,37,31,80,49,20,30.11,30.05,30.01,10,10,10,17,4,32,0.00,2,,286
2012-9-5,80,60,43,44,36,25,86,50,15,30.10,30.01,29.94,10,10,10,13,6,18,0.00,1,,247
2012-9-6,78,60,43,47,41,37,80,50,24,30.00,29.95,29.92,10,10,10,15,8,23,0.00,1,Rain,261
2012-9-7,78,62,46,47,42,36,86,51,24,30.09,30.03,29.96,10,10,9,16,8,18,0.00,3,,18
2012-9-8,77,58,41,36,29,22,79,41,14,30.18,30.11,30.04,10,10,10,15,5,23,0.00,0,,305
2012-9-9,75,56,39,37,31,27,62,41,19,30.13,30.06,30.00,10,10,10,15,7,20,0.00,0,,217
2012-9-10,75,57,41,53,42,32,90,57,28,30.32,30.02,29.91,10,10,10,15,6,24,0.10,3,Rain-Thunderstorm,221
2012-9-11,61,56,51,52,50,47,100,87,60,30.27,29.99,29.88,10,8,1,12,4,,0.51,7,Rain,238
2012-9-12,70,58,48,49,40,29,93,61,27,30.32,30.05,29.99,10,10,10,18,6,22,0.06,3,Rain,339
2012-9-13,72,51,32,34,27,23,85,45,18,30.32,30.25,30.17,10,10,10,10,7,,0.00,0,,259
2012-9-14,71,52,33,37,31,26,78,51,24,30.35,30.26,30.20,10,10,10,12,8,16,0.00,0,,210
2012-9-15,75,55,37,34,27,17,76,42,12,30.27,30.17,30.09,10,10,10,13,8,,0.00,0,,272
2012-9-16,75,55,37,34,28,20,76,41,13,30.14,30.07,29.99,10,10,10,15,8,25,0.00,0,,282
2012-9-17,72,56,39,30,23,16,58,29,16,30.10,30.00,29.92,10,10,10,20,8,30,0.00,0,,294
2012-9-18,75,52,30,23,16,-3,67,33,5,30.20,30.13,30.08,10,10,10,10,5,,0.00,0,,283
2012-9-19,75,53,33,26,19,9,61,34,8,30.19,30.12,30.06,10,10,10,9,6,16,0.00,0,,273
2012-9-20,77,56,36,24,21,18,57,31,12,30.16,30.09,30.01,10,10,10,14,7,21,0.00,0,,286
2012-9-21,75,54,34,23,19,12,59,32,10,30.15,30.07,30.00,10,10,10,10,7,17,0.00,0,,276
2012-9-22,73,54,37,31,25,21,52,35,17,30.17,30.08,30.04,10,10,10,14,8,17,0.00,3,,237
2012-9-23,71,56,43,37,32,30,60,43,25,30.13,30.06,30.00,10,10,10,16,8,21,0.00,3,,236
2012-9-24,66,50,36,43,34,28,93,57,26,30.23,29.99,29.89,10,10,7,28,9,38,0.07,4,Rain-Thunderstorm,243
2012-9-25,62,52,39,44,40,35,97,75,44,30.16,29.94,29.84,10,9,5,15,5,24,0.24,5,Rain-Thunderstorm,259
2012-9-26,64,48,33,38,35,31,96,66,32,30.04,29.99,29.95,10,10,10,13,5,,0.00,2,,295
2012-9-27,66,50,34,41,37,32,93,62,32,30.28,30.09,30.02,10,10,10,15,7,21,0.00,2,Thunderstorm,257
2012-9-28,70,50,35,39,35,26,89,62,23,30.11,30.04,29.96,10,10,10,12,6,,0.00,2,,244
2012-9-29,70,52,35,35,31,26,86,55,20,30.17,30.10,30.05,10,10,10,26,6,33,0.00,2,,281
2012-9-30,73,52,32,31,26,21,85,45,15,30.24,30.16,30.10,10,10,10,17,6,23,0.00,0,,308